KTIW/TIW METAR and TAF weather

Enter ICAO airport designator
Station Type Date Time Source
KTIW METAR 2020/06/06 00:53 UTC NOAA

KTIW 060053Z 19006KT 10SM SCT055 18/09 A2971 RMK AO2 LTG DSNT NW RAB12E22 SLP059 P0000 T01830089


Station Type Date Time Source
KTIW Decoded METAR 2020/06/06 00:53 UTC NOAA

Tacoma, Tacoma Narrows Airport, WA, United States (KTIW) 47-16-03N 122-34-34W 96M
Jun 05, 2020 - 08:53 PM EDT / 2020.06.06 0053 UTC
Wind: from the S (190 degrees) at 7 MPH (6 KT):0
Visibility: 10 mile(s):0
Sky conditions: partly cloudy
Weather: Lightning observed
Precipitation last hour: A trace
Temperature: 64.9 F (18.3 C)
Dew Point: 48.0 F (8.9 C)
Relative Humidity: 54%
Pressure (altimeter): 29.71 in. Hg (1006 hPa)
ob: KTIW 060053Z 19006KT 10SM SCT055 18/09 A2971 RMK AO2 LTG DSNT NW RAB12E22 SLP059 P0000 T01830089
cycle: 1

Station Type Date Time Source
KTIW TAF UTC NOAA

Error!

Example: see airport list